createdAt,value
2022-08-24T00:01:38.528Z,6.80
2022-08-24T00:06:23.973Z,6.90
2022-08-24T00:11:08.290Z,6.63
2022-08-24T00:15:52.023Z,6.53
2022-08-24T00:20:39.191Z,7.40
2022-08-24T00:25:24.458Z,6.70
2022-08-24T00:30:11.252Z,6.97
2022-08-24T00:34:58.738Z,6.90
2022-08-24T00:39:44.338Z,6.23
2022-08-24T00:44:27.944Z,6.67
2022-08-24T00:49:19.491Z,5.47
2022-08-24T00:54:06.119Z,6.43
2022-08-24T00:59:07.887Z,6.90
2022-08-24T01:03:56.593Z,6.90
2022-08-24T01:08:41.419Z,6.77
2022-08-24T01:13:26.233Z,7.00
2022-08-24T01:18:33.424Z,6.40
2022-08-24T01:23:25.938Z,6.90
2022-08-24T01:28:27.407Z,5.37
2022-08-24T01:33:22.958Z,6.17
2022-08-24T01:38:09.465Z,6.00
2022-08-24T01:42:54.877Z,5.13
2022-08-24T01:47:38.614Z,6.30
2022-08-24T01:52:25.343Z,5.40
2022-08-24T01:57:09.683Z,6.83
2022-08-24T02:02:04.051Z,6.93
2022-08-24T02:06:47.652Z,6.87
2022-08-24T02:11:34.580Z,6.63
2022-08-24T02:16:18.674Z,7.20
2022-08-24T02:21:05.255Z,8.03
2022-08-24T02:25:50.993Z,7.67
2022-08-24T02:30:35.081Z,7.87
2022-08-24T02:35:18.647Z,7.87
2022-08-24T02:40:05.630Z,8.13
2022-08-24T02:44:49.474Z,8.73
2022-08-24T02:49:34.093Z,9.30
2022-08-24T02:54:19.689Z,8.73
2022-08-24T02:59:07.920Z,8.83
2022-08-24T03:03:51.849Z,9.60
2022-08-24T03:08:36.875Z,9.00
2022-08-24T03:13:21.343Z,9.20
2022-08-24T03:18:06.349Z,9.67
2022-08-24T03:22:50.599Z,9.30
2022-08-24T03:27:35.535Z,8.63
2022-08-24T03:32:19.460Z,8.67
2022-08-24T03:37:04.803Z,10.83
2022-08-24T03:41:48.343Z,9.47
2022-08-24T03:46:37.240Z,9.17
2022-08-24T03:51:23.400Z,9.70
2022-08-24T03:56:09.409Z,10.20
2022-08-24T04:00:53.825Z,10.33
2022-08-24T04:05:38.159Z,10.40
2022-08-24T04:10:23.965Z,9.63
2022-08-24T04:15:11.120Z,9.50
2022-08-24T04:19:59.667Z,9.73
2022-08-24T04:24:47.212Z,9.17
2022-08-24T04:29:31.033Z,8.97
2022-08-24T04:34:18.660Z,10.87
2022-08-24T04:39:03.206Z,11.10
2022-08-24T04:44:12.288Z,10.60
2022-08-24T04:48:56.376Z,10.70
2022-08-24T04:53:42.376Z,10.57
2022-08-24T04:58:26.144Z,10.17
2022-08-24T05:03:13.469Z,8.97
2022-08-24T05:07:57.501Z,9.53
2022-08-24T05:12:44.259Z,9.00
2022-08-24T05:17:29.342Z,8.60
2022-08-24T05:22:13.371Z,7.47
2022-08-24T05:27:02.879Z,8.10
2022-08-24T05:31:49.820Z,9.40
2022-08-24T05:36:35.508Z,8.30
2022-08-24T05:41:19.949Z,8.30
2022-08-24T05:46:09.468Z,8.90
2022-08-24T05:50:55.880Z,8.73
2022-08-24T05:55:42.052Z,7.30
2022-08-24T06:00:29.032Z,8.33
2022-08-24T06:05:14.242Z,7.77
2022-08-24T06:10:14.593Z,8.37
2022-08-24T06:15:04.215Z,8.40
2022-08-24T06:19:48.573Z,8.53
2022-08-24T06:24:49.836Z,8.57
2022-08-24T06:29:36.662Z,9.10
2022-08-24T06:34:40.115Z,8.63
2022-08-24T06:39:23.943Z,8.37
2022-08-24T06:44:11.695Z,8.70
2022-08-24T06:49:13.656Z,7.80
2022-08-24T06:53:57.607Z,9.27
2022-08-24T06:59:03.433Z,7.40
2022-08-24T07:03:48.679Z,7.93
2022-08-24T07:08:46.026Z,7.53
2022-08-24T07:13:32.018Z,8.23
2022-08-24T07:18:17.363Z,7.63
2022-08-24T07:23:04.872Z,8.35
2022-08-24T07:27:50.478Z,6.28
2022-08-24T07:32:34.687Z,6.68
2022-08-24T07:37:18.695Z,7.55
2022-08-24T07:42:17.195Z,7.60
2022-08-24T07:47:34.371Z,8.32
2022-08-24T07:52:12.326Z,7.90
2022-08-24T07:56:56.748Z,7.20
2022-08-24T08:01:40.630Z,8.07
2022-08-24T08:06:27.700Z,8.88
2022-08-24T08:11:16.578Z,7.32
2022-08-24T08:16:02.336Z,8.38
2022-08-24T08:20:48.779Z,8.80
2022-08-24T08:25:34.914Z,8.45
2022-08-24T08:30:21.975Z,7.57
2022-08-24T08:35:29.725Z,6.95
2022-08-24T08:40:42.204Z,6.20
2022-08-24T08:45:49.070Z,6.85
2022-08-24T08:51:20.898Z,7.22
2022-08-24T08:56:16.152Z,6.35
2022-08-24T09:01:06.542Z,6.32
2022-08-24T09:06:21.053Z,6.57
2022-08-24T09:11:13.834Z,5.50
2022-08-24T09:16:28.388Z,6.20
2022-08-24T09:21:54.194Z,4.78
2022-08-24T09:26:49.300Z,4.82
2022-08-24T09:31:54.651Z,5.80
2022-08-24T09:36:55.250Z,5.93
2022-08-24T09:42:27.167Z,6.00
2022-08-24T09:47:48.638Z,5.15
2022-08-24T09:53:04.159Z,5.15
2022-08-24T09:58:02.659Z,5.43
2022-08-24T10:02:58.179Z,6.20
2022-08-24T10:07:50.777Z,6.72
2022-08-24T10:12:47.877Z,8.07
2022-08-24T10:17:46.249Z,6.50
2022-08-24T10:22:42.594Z,4.90
2022-08-24T10:27:44.377Z,6.10
2022-08-24T10:32:55.557Z,6.40
2022-08-24T10:38:18.748Z,5.75
2022-08-24T10:43:38.763Z,5.63
2022-08-24T10:49:00.775Z,6.43
2022-08-24T10:53:50.714Z,7.13
2022-08-24T10:58:43.766Z,5.32
2022-08-24T11:03:32.381Z,5.28
2022-08-24T11:08:23.604Z,6.43
2022-08-24T11:13:24.181Z,6.10
2022-08-24T11:18:07.913Z,6.68
2022-08-24T11:23:05.394Z,6.10
2022-08-24T11:27:52.798Z,6.28
2022-08-24T11:32:43.249Z,6.28
2022-08-24T11:37:35.899Z,6.22
2022-08-24T11:42:34.020Z,6.72
2022-08-24T11:47:51.100Z,6.50
2022-08-24T11:52:49.082Z,6.68
2022-08-24T11:57:48.412Z,7.07
2022-08-24T12:02:42.456Z,6.88
2022-08-24T12:07:41.606Z,5.95
2022-08-24T12:12:33.219Z,6.47
2022-08-24T12:17:27.839Z,6.10
2022-08-24T12:22:14.084Z,6.82
2022-08-24T12:27:03.760Z,6.03
2022-08-24T12:31:51.469Z,6.20
2022-08-24T12:36:45.098Z,7.18
2022-08-24T12:41:35.313Z,7.15
2022-08-24T12:46:23.143Z,5.55
2022-08-24T12:51:24.749Z,5.90
2022-08-24T12:56:24.268Z,5.85
2022-08-24T13:01:09.328Z,6.40
2022-08-24T13:05:58.991Z,6.00
2022-08-24T13:10:52.686Z,6.47
2022-08-24T13:16:03.306Z,6.60
2022-08-24T13:20:59.112Z,5.78
2022-08-24T13:25:58.175Z,6.28
2022-08-24T13:31:11.209Z,6.20
2022-08-24T13:35:59.991Z,6.30
2022-08-24T13:40:52.772Z,5.95
2022-08-24T13:45:41.382Z,6.22
2022-08-24T13:50:37.934Z,6.90
2022-08-24T13:55:36.982Z,7.00
2022-08-24T14:00:45.445Z,6.75
2022-08-24T14:05:37.124Z,5.68
2022-08-24T14:10:38.306Z,6.85
2022-08-24T14:15:32.445Z,7.57
2022-08-24T14:20:39.952Z,7.05
2022-08-24T14:25:27.280Z,6.78
2022-08-24T14:30:54.575Z,6.03
2022-08-24T14:35:44.328Z,5.53
2022-08-24T14:40:37.238Z,6.70
2022-08-24T14:45:27.974Z,6.40
2022-08-24T14:50:17.374Z,7.40
2022-08-24T14:55:13.025Z,7.50
2022-08-24T15:00:12.000Z,6.25
2022-08-24T15:04:59.636Z,6.93
2022-08-24T15:09:47.343Z,6.40
2022-08-24T15:14:40.189Z,7.05
2022-08-24T15:19:32.153Z,7.80
2022-08-24T15:24:42.569Z,7.13
2022-08-24T15:29:30.443Z,6.88
2022-08-24T15:34:14.003Z,11.25
2022-08-24T15:38:59.030Z,11.25
2022-08-24T15:43:45.886Z,10.70
2022-08-24T15:48:30.478Z,12.38
2022-08-24T15:53:32.058Z,11.85
2022-08-24T15:58:31.775Z,11.00
2022-08-24T16:03:22.076Z,10.85
2022-08-24T16:08:10.640Z,10.80
2022-08-24T16:12:55.092Z,11.48
2022-08-24T16:17:50.502Z,11.55
2022-08-24T16:22:39.126Z,11.60
2022-08-24T16:27:23.058Z,10.82
2022-08-24T16:32:22.958Z,11.23
2022-08-24T16:37:19.728Z,11.55
2022-08-24T16:42:06.483Z,10.88
2022-08-24T16:46:50.195Z,10.98
2022-08-24T16:51:35.999Z,12.68
2022-08-24T16:56:26.832Z,11.43
2022-08-24T17:01:10.623Z,11.10
2022-08-24T17:05:54.811Z,9.82
2022-08-24T17:10:38.386Z,11.45
2022-08-24T17:15:23.862Z,10.18
2022-08-24T17:20:11.111Z,10.10
2022-08-24T17:24:55.103Z,9.10
2022-08-24T17:29:38.592Z,9.63
2022-08-24T17:34:24.857Z,9.70
2022-08-24T17:39:08.580Z,11.35
2022-08-24T17:43:52.527Z,11.02
2022-08-24T17:48:36.393Z,10.98
2022-08-24T17:53:23.533Z,10.65
2022-08-24T17:58:07.209Z,11.75
2022-08-24T18:02:51.230Z,11.02
2022-08-24T18:07:52.530Z,11.05
2022-08-24T18:12:39.541Z,10.70
2022-08-24T18:17:32.707Z,10.37
2022-08-24T18:22:19.722Z,10.57
2022-08-24T18:43:23.652Z,10.87
2022-08-24T18:48:07.788Z,11.67
2022-08-24T18:52:52.053Z,12.10
2022-08-24T18:57:38.993Z,10.83
2022-08-24T19:03:01.732Z,11.30
2022-08-24T19:08:03.873Z,11.33
2022-08-24T19:12:53.843Z,11.50
2022-08-24T19:17:48.408Z,11.60
2022-08-24T19:22:32.301Z,12.47
2022-08-24T19:27:19.582Z,11.57
2022-08-24T19:32:09.941Z,11.53
2022-08-24T19:36:59.346Z,11.23
2022-08-24T19:41:49.230Z,11.80
2022-08-24T19:47:15.355Z,11.60
2022-08-24T19:52:03.163Z,11.03
2022-08-24T19:57:27.919Z,12.77
2022-08-24T20:02:53.179Z,12.67
2022-08-24T20:08:11.821Z,13.27
2022-08-24T20:13:09.172Z,12.00
2022-08-24T20:18:12.614Z,12.07
2022-08-24T20:23:00.614Z,11.97
2022-08-24T20:27:47.811Z,11.47
2022-08-24T20:32:35.888Z,11.27
2022-08-24T20:37:24.216Z,12.50
2022-08-24T20:42:21.551Z,12.37
2022-08-24T20:47:06.970Z,11.93
2022-08-24T20:52:15.477Z,12.07
2022-08-24T20:57:13.167Z,11.50
2022-08-24T21:02:09.815Z,11.47
2022-08-24T21:06:59.037Z,11.80
2022-08-24T21:12:08.339Z,11.07
2022-08-24T21:17:09.895Z,10.70
2022-08-24T21:21:55.656Z,11.50
2022-08-24T21:26:39.930Z,11.50
2022-08-24T21:31:27.760Z,11.83
2022-08-24T21:36:33.521Z,12.00
2022-08-24T21:41:22.453Z,12.10
2022-08-24T21:46:28.728Z,12.30
2022-08-24T21:51:31.012Z,11.57
2022-08-24T21:56:28.292Z,12.17
2022-08-24T22:01:12.479Z,11.87
2022-08-24T22:05:56.371Z,11.77
2022-08-24T22:10:41.545Z,12.10
2022-08-24T22:15:27.984Z,12.27
2022-08-24T22:20:33.575Z,12.67
2022-08-24T22:25:19.556Z,13.60
2022-08-24T22:30:05.578Z,14.87
2022-08-24T22:34:49.236Z,12.37
2022-08-24T22:39:33.169Z,14.53
2022-08-24T22:44:24.346Z,14.10
2022-08-24T22:49:13.099Z,15.53
2022-08-24T22:53:56.957Z,15.70
2022-08-24T22:58:40.799Z,17.10
2022-08-24T23:03:25.007Z,16.77
2022-08-24T23:08:11.925Z,16.90
2022-08-24T23:12:59.023Z,15.47
2022-08-24T23:17:43.859Z,17.20
2022-08-24T23:22:28.439Z,15.67
2022-08-24T23:27:15.374Z,18.13
2022-08-24T23:31:59.412Z,17.63
2022-08-24T23:36:44.348Z,19.17
2022-08-24T23:41:31.228Z,17.60
2022-08-24T23:46:17.021Z,20.47
2022-08-24T23:51:01.473Z,21.00
2022-08-24T23:55:52.801Z,21.37
